createdAt,value
2022-09-23T00:01:15.115Z,99.90
2022-09-23T00:03:45.641Z,99.90
2022-09-23T00:06:20.877Z,99.90
2022-09-23T00:08:49.729Z,99.90
2022-09-23T00:11:19.684Z,99.90
2022-09-23T00:13:48.799Z,99.90
2022-09-23T00:16:19.084Z,99.90
2022-09-23T00:18:46.049Z,99.90
2022-09-23T00:21:14.504Z,99.90
2022-09-23T00:23:43.223Z,99.90
2022-09-23T00:26:12.564Z,99.90
2022-09-23T00:28:40.424Z,99.90
2022-09-23T00:31:13.481Z,99.90
2022-09-23T00:33:43.351Z,99.90
2022-09-23T00:36:15.963Z,99.90
2022-09-23T00:38:44.118Z,99.90
2022-09-23T00:41:11.847Z,99.90
2022-09-23T00:43:44.614Z,99.90
2022-09-23T00:46:22.325Z,99.90
2022-09-23T00:48:54.778Z,99.90
2022-09-23T00:51:24.712Z,99.90
2022-09-23T00:53:52.394Z,99.90
2022-09-23T00:56:22.955Z,99.90
2022-09-23T00:58:51.672Z,99.90
2022-09-23T01:01:19.699Z,99.90
2022-09-23T01:03:47.238Z,99.90
2022-09-23T01:06:14.739Z,99.90
2022-09-23T01:08:44.293Z,99.90
2022-09-23T01:11:32.921Z,99.90
2022-09-23T01:14:02.493Z,99.90
2022-09-23T01:16:45.335Z,99.90
2022-09-23T01:19:30.756Z,99.90
2022-09-23T01:22:08.394Z,99.90
2022-09-23T01:24:35.277Z,99.90
2022-09-23T01:27:14.114Z,99.90
2022-09-23T01:30:07.909Z,99.90
2022-09-23T01:33:09.002Z,99.90
2022-09-23T01:35:47.654Z,99.90
2022-09-23T01:38:35.840Z,99.90
2022-09-23T01:41:36.582Z,99.90
2022-09-23T01:44:29.381Z,99.90
2022-09-23T01:47:10.862Z,99.90
2022-09-23T01:49:50.810Z,99.90
2022-09-23T01:52:23.377Z,99.90
2022-09-23T01:55:03.688Z,99.90
2022-09-23T01:57:42.473Z,99.90
2022-09-23T02:00:11.616Z,99.90
2022-09-23T02:02:57.596Z,99.90
2022-09-23T02:05:52.638Z,99.90
2022-09-23T02:08:28.068Z,99.90
2022-09-23T02:11:00.532Z,99.90
2022-09-23T02:13:38.712Z,99.90
2022-09-23T02:16:14.147Z,99.90
2022-09-23T02:18:49.399Z,99.90
2022-09-23T02:21:20.104Z,99.90
2022-09-23T02:23:52.109Z,99.90
2022-09-23T02:26:37.486Z,99.90
2022-09-23T02:29:27.370Z,99.90
2022-09-23T02:32:02.217Z,99.90
2022-09-23T02:35:11.388Z,99.90
2022-09-23T02:38:10.702Z,99.90
2022-09-23T02:41:04.640Z,99.90
2022-09-23T02:43:33.886Z,99.90
2022-09-23T02:46:01.481Z,99.90
2022-09-23T02:48:35.083Z,99.90
2022-09-23T02:51:03.600Z,99.90
2022-09-23T02:53:34.594Z,99.90
2022-09-23T02:56:03.094Z,99.90
2022-09-23T02:58:30.105Z,99.90
2022-09-23T03:01:11.032Z,99.90
2022-09-23T03:03:49.906Z,99.90
2022-09-23T03:06:46.903Z,99.90
2022-09-23T03:09:25.561Z,99.90
2022-09-23T03:12:40.677Z,99.90
2022-09-23T03:15:19.514Z,99.90
2022-09-23T03:18:05.341Z,99.90
2022-09-23T03:20:34.619Z,99.90
2022-09-23T03:23:10.314Z,99.90
2022-09-23T03:25:41.151Z,99.90
2022-09-23T03:28:09.385Z,99.90
2022-09-23T03:30:37.399Z,99.90
2022-09-23T03:33:08.257Z,99.90
2022-09-23T03:36:02.672Z,99.90
2022-09-23T03:38:35.016Z,99.90
2022-09-23T03:41:04.178Z,99.90
2022-09-23T03:43:35.216Z,99.90
2022-09-23T03:46:07.183Z,99.90
2022-09-23T03:48:34.178Z,99.90
2022-09-23T03:51:19.230Z,99.90
2022-09-23T03:53:46.018Z,99.90
2022-09-23T03:56:12.786Z,99.90
2022-09-23T03:58:39.903Z,99.90
2022-09-23T04:01:07.350Z,99.90
2022-09-23T04:03:34.100Z,99.90
2022-09-23T04:06:01.940Z,99.90
2022-09-23T04:08:28.719Z,99.90
2022-09-23T04:11:01.570Z,99.90
2022-09-23T04:13:29.369Z,99.90
2022-09-23T04:15:56.139Z,99.90
2022-09-23T04:18:23.304Z,99.90
2022-09-23T04:20:50.087Z,99.90
2022-09-23T04:23:16.985Z,99.90
2022-09-23T04:25:47.610Z,99.90
2022-09-23T04:28:14.851Z,99.90
2022-09-23T04:30:46.128Z,99.90
2022-09-23T04:33:13.750Z,99.90
2022-09-23T04:35:43.382Z,99.90
2022-09-23T04:38:12.432Z,99.90
2022-09-23T04:40:39.566Z,99.90
2022-09-23T04:43:09.467Z,99.90
2022-09-23T04:45:38.448Z,99.90
2022-09-23T04:48:05.212Z,99.90
2022-09-23T04:50:33.871Z,99.90
2022-09-23T04:53:00.761Z,99.90
2022-09-23T04:55:27.487Z,99.90
2022-09-23T04:57:54.623Z,99.90
2022-09-23T05:00:23.145Z,99.90
2022-09-23T05:02:50.564Z,99.90
2022-09-23T05:05:22.290Z,99.90
2022-09-23T05:07:49.080Z,99.90
2022-09-23T05:10:16.671Z,99.90
2022-09-23T05:12:43.660Z,99.90
2022-09-23T05:15:10.367Z,99.90
2022-09-23T05:17:37.282Z,99.90
2022-09-23T05:20:04.769Z,99.90
2022-09-23T05:22:31.763Z,99.90
2022-09-23T05:25:00.253Z,99.90
2022-09-23T05:27:27.187Z,99.90
2022-09-23T05:29:54.220Z,99.90
2022-09-23T05:32:21.795Z,99.90
2022-09-23T05:34:48.719Z,99.90
2022-09-23T05:37:15.672Z,99.90
2022-09-23T05:39:42.528Z,99.90
2022-09-23T05:42:09.842Z,99.90
2022-09-23T05:44:36.529Z,99.90
2022-09-23T05:47:03.478Z,99.90
2022-09-23T05:49:55.231Z,99.90
2022-09-23T05:52:17.767Z,99.90
2022-09-23T05:54:44.475Z,99.90
2022-09-23T05:57:11.827Z,99.90
2022-09-23T05:59:38.528Z,99.90
2022-09-23T06:06:17.862Z,99.90
2022-09-23T06:08:45.347Z,99.90
2022-09-23T06:11:13.238Z,99.90
2022-09-23T06:13:40.890Z,99.90
2022-09-23T06:16:09.846Z,99.90
2022-09-23T06:18:42.708Z,99.90
2022-09-23T06:21:12.928Z,99.90
2022-09-23T06:23:41.948Z,99.90
2022-09-23T06:26:11.167Z,99.90
2022-09-23T06:28:40.437Z,99.90
2022-09-23T06:31:13.299Z,99.90
2022-09-23T06:33:42.562Z,99.90
2022-09-23T06:36:09.729Z,99.90
2022-09-23T06:38:40.149Z,99.90
2022-09-23T06:41:07.008Z,99.90
2022-09-23T06:43:33.872Z,99.90
2022-09-23T06:46:03.835Z,99.90
2022-09-23T06:48:34.335Z,99.90
2022-09-23T06:51:02.522Z,99.90
2022-09-23T06:53:32.292Z,99.90
2022-09-23T06:56:00.312Z,99.90
2022-09-23T06:58:27.202Z,99.90
2022-09-23T07:00:54.484Z,99.90
2022-09-23T07:03:22.235Z,99.90
2022-09-23T07:05:49.152Z,99.90
2022-09-23T07:08:16.355Z,99.90
2022-09-23T07:10:43.103Z,99.90
2022-09-23T07:13:13.003Z,99.90
2022-09-23T07:15:42.939Z,99.90
2022-09-23T07:18:09.732Z,99.90
2022-09-23T07:20:36.369Z,99.90
2022-09-23T07:23:03.144Z,99.90
2022-09-23T07:25:29.954Z,99.90
2022-09-23T07:27:56.710Z,99.90
2022-09-23T07:30:25.539Z,99.90
2022-09-23T07:32:53.165Z,99.90
2022-09-23T07:35:19.975Z,99.90
2022-09-23T07:37:47.022Z,99.90
2022-09-23T07:40:13.650Z,99.90
2022-09-23T07:42:41.128Z,99.90
2022-09-23T07:45:09.070Z,99.90
2022-09-23T07:47:36.014Z,99.90
2022-09-23T07:50:03.138Z,99.90
2022-09-23T07:52:29.964Z,99.90
2022-09-23T07:54:56.713Z,99.90
2022-09-23T07:57:24.010Z,99.90
2022-09-23T07:59:50.692Z,99.90
2022-09-23T08:02:17.429Z,99.90
2022-09-23T08:04:44.206Z,99.90
2022-09-23T08:07:12.590Z,99.90
2022-09-23T08:09:41.910Z,99.90
2022-09-23T08:12:16.277Z,99.90
2022-09-23T08:14:43.613Z,99.90
2022-09-23T08:17:12.255Z,99.90
2022-09-23T08:19:38.961Z,99.90
2022-09-23T08:22:05.772Z,99.90
2022-09-23T08:24:32.493Z,99.90
2022-09-23T08:26:59.298Z,99.90
2022-09-23T08:29:26.401Z,99.90
2022-09-23T08:31:54.166Z,99.90
2022-09-23T08:34:22.770Z,99.90
2022-09-23T08:36:49.956Z,99.90
2022-09-23T08:39:18.692Z,99.90
2022-09-23T08:41:58.495Z,99.90
2022-09-23T08:44:53.266Z,99.90
2022-09-23T08:47:23.003Z,99.90
2022-09-23T08:50:11.875Z,99.90
2022-09-23T08:52:51.369Z,99.90
2022-09-23T08:55:19.468Z,99.60
2022-09-23T08:58:24.329Z,99.40
2022-09-23T09:01:08.115Z,98.80
2022-09-23T09:03:54.784Z,97.40
2022-09-23T09:06:52.464Z,96.00
2022-09-23T09:09:49.308Z,94.00
2022-09-23T09:12:20.485Z,92.90
2022-09-23T09:14:55.252Z,91.70
2022-09-23T09:17:52.708Z,91.50
2022-09-23T09:20:50.228Z,89.70
2022-09-23T09:23:22.620Z,86.90
2022-09-23T09:25:52.486Z,84.20
2022-09-23T09:28:30.853Z,84.10
2022-09-23T09:31:01.301Z,82.90
2022-09-23T09:33:36.161Z,81.00
2022-09-23T09:36:21.768Z,80.00
2022-09-23T09:38:48.553Z,78.90
2022-09-23T09:41:17.827Z,78.30
2022-09-23T09:43:52.276Z,76.30
2022-09-23T09:46:36.764Z,74.70
2022-09-23T09:49:25.787Z,76.00
2022-09-23T09:52:14.733Z,76.20
2022-09-23T09:54:44.360Z,73.10
2022-09-23T09:57:35.218Z,72.60
2022-09-23T10:00:21.738Z,71.70
2022-09-23T10:03:03.582Z,70.60
2022-09-23T10:05:32.486Z,69.70
2022-09-23T10:08:21.175Z,68.60
2022-09-23T10:11:01.036Z,69.60
2022-09-23T10:13:29.459Z,69.80
2022-09-23T10:16:01.286Z,69.30
2022-09-23T10:18:38.583Z,69.70
2022-09-23T10:21:12.085Z,68.80
2022-09-23T10:23:42.312Z,68.10
2022-09-23T10:26:11.966Z,67.70
2022-09-23T10:28:44.102Z,67.40
2022-09-23T10:31:14.141Z,66.30
2022-09-23T10:33:47.657Z,67.30
2022-09-23T10:36:16.798Z,67.20
2022-09-23T10:38:44.027Z,66.90
2022-09-23T10:41:49.984Z,66.60
2022-09-23T10:44:58.130Z,65.30
2022-09-23T10:47:34.090Z,63.60
2022-09-23T10:50:19.163Z,62.30
2022-09-23T10:53:01.226Z,61.20
2022-09-23T10:55:40.453Z,61.70
2022-09-23T10:58:43.316Z,61.40
2022-09-23T11:01:21.820Z,62.40
2022-09-23T11:04:12.188Z,62.40
2022-09-23T11:06:54.297Z,61.40
2022-09-23T11:09:49.016Z,61.10
2022-09-23T11:12:57.876Z,61.30
2022-09-23T11:15:32.856Z,62.30
2022-09-23T11:18:22.763Z,62.50
2022-09-23T11:21:31.729Z,61.70
2022-09-23T11:24:20.032Z,61.10
2022-09-23T11:27:17.613Z,60.60
2022-09-23T11:29:55.354Z,60.90
2022-09-23T11:32:34.065Z,60.50
2022-09-23T11:35:28.983Z,60.80
2022-09-23T11:38:11.757Z,60.00
2022-09-23T11:40:45.589Z,59.80
2022-09-23T11:43:34.438Z,60.50
2022-09-23T11:46:14.118Z,60.50
2022-09-23T11:48:49.173Z,59.50
2022-09-23T11:51:24.601Z,60.00
2022-09-23T11:54:04.194Z,61.00
2022-09-23T11:56:57.240Z,60.70
2022-09-23T11:59:43.592Z,61.60
2022-09-23T12:02:23.691Z,61.60
2022-09-23T12:05:13.414Z,61.40
2022-09-23T12:07:57.617Z,61.50
2022-09-23T12:10:52.494Z,61.80
2022-09-23T12:13:34.198Z,60.80
2022-09-23T12:16:38.408Z,59.70
2022-09-23T12:19:36.341Z,59.60
2022-09-23T12:22:45.773Z,59.60
2022-09-23T12:25:35.677Z,58.90
2022-09-23T12:28:10.292Z,59.30
2022-09-23T12:30:38.524Z,60.30
2022-09-23T12:33:32.692Z,60.20
2022-09-23T12:36:08.350Z,61.30
2022-09-23T12:38:41.688Z,60.70
2022-09-23T12:41:26.616Z,61.60
2022-09-23T12:44:00.672Z,61.90
2022-09-23T12:46:28.088Z,61.70
2022-09-23T12:48:58.023Z,61.00
2022-09-23T12:51:26.327Z,60.70
2022-09-23T12:54:15.497Z,59.40
2022-09-23T12:56:43.392Z,59.30
2022-09-23T12:59:17.877Z,59.10
2022-09-23T13:01:45.038Z,58.60
2022-09-23T13:05:02.009Z,59.70
2022-09-23T13:07:32.222Z,60.50
2022-09-23T13:10:07.843Z,60.10
2022-09-23T13:12:39.444Z,59.60
2022-09-23T13:15:39.328Z,59.40
2022-09-23T13:18:24.848Z,59.40
2022-09-23T13:20:53.944Z,60.50
2022-09-23T13:23:22.223Z,60.60
2022-09-23T13:25:53.655Z,60.50
2022-09-23T13:28:33.445Z,59.50
2022-09-23T13:31:05.363Z,59.30
2022-09-23T13:33:38.851Z,60.20
2022-09-23T13:36:14.998Z,60.20
2022-09-23T13:38:42.403Z,61.10
2022-09-23T13:41:22.200Z,63.00
2022-09-23T13:43:59.866Z,64.70
2022-09-23T13:46:30.486Z,66.30
2022-09-23T13:48:57.465Z,67.30
2022-09-23T13:51:33.190Z,68.70
2022-09-23T13:54:02.201Z,70.10
2022-09-23T13:56:31.464Z,70.60
2022-09-23T13:59:24.164Z,71.00
2022-09-23T14:01:51.291Z,70.00
2022-09-23T14:04:25.958Z,68.60
2022-09-23T14:06:53.867Z,67.50
2022-09-23T14:09:27.278Z,65.70
2022-09-23T14:11:57.108Z,63.30
2022-09-23T14:14:24.148Z,62.50
2022-09-23T14:16:52.054Z,60.90
2022-09-23T14:19:22.344Z,60.40
2022-09-23T14:21:53.004Z,60.60
2022-09-23T14:24:24.095Z,60.50
2022-09-23T14:26:56.261Z,60.20
2022-09-23T14:29:30.392Z,61.30
2022-09-23T14:32:04.372Z,62.90
2022-09-23T14:34:52.687Z,62.80
2022-09-23T14:37:50.442Z,62.60
2022-09-23T14:40:20.720Z,61.80
2022-09-23T14:43:24.945Z,60.70
2022-09-23T14:45:57.652Z,60.90
2022-09-23T14:48:25.647Z,60.80
2022-09-23T14:50:58.528Z,60.40
2022-09-23T14:53:31.216Z,59.80
2022-09-23T14:56:07.191Z,60.60
2022-09-23T14:58:53.548Z,60.40
2022-09-23T15:01:32.690Z,60.20
2022-09-23T15:04:38.195Z,60.50
2022-09-23T15:07:14.784Z,60.10
2022-09-23T15:09:41.854Z,60.70
2022-09-23T15:12:20.955Z,63.50
2022-09-23T15:14:54.964Z,64.50
2022-09-23T15:17:24.394Z,66.30
2022-09-23T15:19:57.593Z,67.40
2022-09-23T15:22:25.473Z,68.40
2022-09-23T15:24:53.870Z,68.40
2022-09-23T15:27:33.813Z,68.50
2022-09-23T15:30:17.300Z,66.40
2022-09-23T15:32:45.198Z,66.30
2022-09-23T15:35:23.593Z,65.50
2022-09-23T15:37:51.507Z,65.90
2022-09-23T15:40:23.585Z,66.10
2022-09-23T15:42:52.450Z,66.70
2022-09-23T15:45:22.054Z,66.90
2022-09-23T15:47:50.431Z,67.60
2022-09-23T15:50:17.354Z,69.00
2022-09-23T15:52:44.960Z,70.30
2022-09-23T15:55:23.537Z,71.40
2022-09-23T15:57:51.219Z,72.90
2022-09-23T16:00:18.072Z,74.00
2022-09-23T16:02:46.863Z,75.40
2022-09-23T16:05:27.373Z,76.80
2022-09-23T16:07:54.133Z,77.60
2022-09-23T16:10:22.342Z,78.90
2022-09-23T16:12:49.575Z,79.70
2022-09-23T16:15:21.176Z,80.10
2022-09-23T16:17:47.874Z,81.30
2022-09-23T16:20:17.660Z,82.80
2022-09-23T16:23:34.227Z,82.70
2022-09-23T16:26:15.154Z,83.50
2022-09-23T16:28:43.131Z,84.60
2022-09-23T16:31:11.779Z,85.40
2022-09-23T16:33:38.930Z,85.80
2022-09-23T16:36:09.496Z,86.70
2022-09-23T16:38:36.152Z,87.70
2022-09-23T16:41:02.977Z,89.10
2022-09-23T16:43:39.143Z,90.40
2022-09-23T16:46:12.144Z,90.40
2022-09-23T16:48:42.769Z,91.60
2022-09-23T16:51:16.052Z,92.70
2022-09-23T16:53:42.785Z,93.20
2022-09-23T16:56:10.350Z,94.30
2022-09-23T16:58:39.328Z,95.80
2022-09-23T17:01:26.163Z,96.90
2022-09-23T17:03:53.144Z,98.80
2022-09-23T17:06:20.632Z,99.90
2022-09-23T17:08:48.230Z,99.90
2022-09-23T17:11:16.432Z,99.90
2022-09-23T17:13:44.128Z,99.90
2022-09-23T17:16:21.696Z,99.90
2022-09-23T17:18:49.669Z,99.90
2022-09-23T17:21:16.982Z,99.90
2022-09-23T17:23:43.727Z,99.90
2022-09-23T17:26:12.365Z,99.90
2022-09-23T17:28:39.154Z,99.90
2022-09-23T17:31:07.812Z,99.90
2022-09-23T17:33:38.001Z,99.90
2022-09-23T17:36:09.870Z,99.90
2022-09-23T17:38:39.099Z,99.90
2022-09-23T17:41:07.684Z,99.90
2022-09-23T17:43:35.128Z,99.90
2022-09-23T17:46:06.340Z,99.90
2022-09-23T17:48:35.491Z,99.90
2022-09-23T17:51:12.179Z,99.90
2022-09-23T17:53:40.485Z,99.90
2022-09-23T17:56:12.314Z,99.90
2022-09-23T17:58:39.199Z,99.90
2022-09-23T18:01:10.595Z,99.90
2022-09-23T18:03:38.303Z,99.90
2022-09-23T18:06:11.367Z,99.90
2022-09-23T18:08:39.273Z,99.90
2022-09-23T18:11:12.229Z,99.90
2022-09-23T18:13:38.949Z,99.90
2022-09-23T18:16:06.009Z,99.90
2022-09-23T18:18:32.888Z,99.90
2022-09-23T18:21:00.423Z,99.90
2022-09-23T18:23:27.106Z,99.90
2022-09-23T18:25:53.820Z,99.90
2022-09-23T18:28:20.588Z,99.90
2022-09-23T18:30:54.825Z,99.90
2022-09-23T18:33:23.644Z,99.90
2022-09-23T18:35:54.204Z,99.90
2022-09-23T18:38:21.042Z,99.90
2022-09-23T18:40:54.119Z,99.90
2022-09-23T18:43:25.598Z,99.90
2022-09-23T18:46:17.106Z,99.90
2022-09-23T18:49:02.940Z,99.90
2022-09-23T18:51:30.664Z,99.90
2022-09-23T18:53:58.752Z,99.90
2022-09-23T18:56:29.645Z,99.90
2022-09-23T18:58:56.639Z,99.90
2022-09-23T19:01:23.651Z,99.90
2022-09-23T19:03:57.470Z,99.90
2022-09-23T19:06:25.094Z,99.90
2022-09-23T19:08:53.923Z,99.90
2022-09-23T19:11:22.136Z,99.90
2022-09-23T19:13:58.426Z,99.90
2022-09-23T19:16:26.097Z,99.90
2022-09-23T19:18:53.641Z,99.90
2022-09-23T19:21:22.452Z,99.90
2022-09-23T19:24:03.185Z,99.90
2022-09-23T19:26:37.423Z,99.90
2022-09-23T19:29:05.610Z,99.90
2022-09-23T19:31:35.740Z,99.90
2022-09-23T19:34:05.999Z,99.90
2022-09-23T19:36:34.424Z,99.90
2022-09-23T19:39:04.409Z,99.90
2022-09-23T19:41:33.206Z,99.90
2022-09-23T19:44:03.995Z,99.90
2022-09-23T19:46:32.256Z,99.90
2022-09-23T19:49:00.493Z,99.90
2022-09-23T19:51:28.162Z,99.90
2022-09-23T19:53:54.920Z,99.90
2022-09-23T19:56:21.956Z,99.90
2022-09-23T19:58:54.166Z,99.90
2022-09-23T20:01:22.410Z,99.90
2022-09-23T20:03:50.293Z,99.90
2022-09-23T20:06:17.925Z,99.90
2022-09-23T20:08:45.327Z,99.90
2022-09-23T20:11:23.672Z,99.90
2022-09-23T20:14:00.618Z,99.90
2022-09-23T20:16:31.664Z,99.90
2022-09-23T20:19:00.984Z,99.90
2022-09-23T20:21:29.482Z,99.90
2022-09-23T20:23:57.039Z,99.90
2022-09-23T20:26:42.329Z,99.90
2022-09-23T20:29:10.596Z,99.90
2022-09-23T20:34:26.139Z,99.90
2022-09-23T20:36:52.889Z,99.90
2022-09-23T20:39:19.592Z,99.90
2022-09-23T20:41:48.112Z,99.90
2022-09-23T20:44:14.824Z,99.90
2022-09-23T20:46:48.343Z,99.90
2022-09-23T20:49:17.282Z,99.90
2022-09-23T20:51:44.369Z,99.90
2022-09-23T20:54:12.212Z,99.90
2022-09-23T20:56:39.144Z,99.90
2022-09-23T20:59:05.963Z,99.90
2022-09-23T21:01:35.178Z,99.90
2022-09-23T21:04:04.811Z,99.90
2022-09-23T21:06:33.481Z,99.90
2022-09-23T21:09:00.832Z,99.90
2022-09-23T21:11:28.086Z,99.90
2022-09-23T21:13:56.029Z,99.90
2022-09-23T21:16:24.619Z,99.90
2022-09-23T21:18:52.207Z,99.90
2022-09-23T21:21:22.366Z,99.90
2022-09-23T21:23:50.554Z,99.90
2022-09-23T21:26:23.111Z,99.90
2022-09-23T21:28:52.435Z,99.90
2022-09-23T21:31:25.663Z,99.90
2022-09-23T21:34:07.392Z,99.90
2022-09-23T21:36:39.176Z,99.90
2022-09-23T21:39:07.847Z,99.90
2022-09-23T21:41:34.868Z,99.90
2022-09-23T21:44:04.698Z,99.90
2022-09-23T21:46:35.451Z,99.90
2022-09-23T21:49:03.889Z,99.90
2022-09-23T21:51:40.509Z,99.90
2022-09-23T21:54:16.079Z,99.90
2022-09-23T21:56:44.076Z,99.90
2022-09-23T21:59:11.126Z,99.90
2022-09-23T22:01:40.869Z,99.90
2022-09-23T22:04:14.757Z,99.90
2022-09-23T22:06:41.880Z,99.90
2022-09-23T22:09:15.784Z,99.90
2022-09-23T22:12:02.609Z,99.90
2022-09-23T22:14:30.456Z,99.90
2022-09-23T22:17:00.417Z,99.90
2022-09-23T22:19:35.363Z,99.90
2022-09-23T22:22:08.023Z,99.90
2022-09-23T22:24:34.790Z,99.90
2022-09-23T22:27:01.571Z,99.90
2022-09-23T22:29:47.238Z,99.90
2022-09-23T22:32:32.585Z,99.90
2022-09-23T22:34:59.355Z,99.90
2022-09-23T22:37:34.065Z,99.90
2022-09-23T22:40:05.947Z,99.90
2022-09-23T22:42:33.048Z,99.90
2022-09-23T22:45:00.247Z,99.90
2022-09-23T22:47:27.057Z,99.90
2022-09-23T22:49:55.610Z,99.90
2022-09-23T22:52:24.287Z,99.90
2022-09-23T22:54:52.050Z,99.90
2022-09-23T22:57:21.811Z,99.90
2022-09-23T22:59:48.756Z,99.90
2022-09-23T23:02:16.352Z,99.90
2022-09-23T23:04:46.528Z,99.90
2022-09-23T23:07:14.781Z,99.90
2022-09-23T23:09:41.968Z,99.90
2022-09-23T23:12:08.902Z,99.90
2022-09-23T23:14:35.890Z,99.90
2022-09-23T23:17:07.130Z,99.90
2022-09-23T23:19:35.058Z,99.90
2022-09-23T23:22:02.179Z,99.90
2022-09-23T23:24:29.020Z,99.90
2022-09-23T23:26:56.034Z,99.90
2022-09-23T23:29:23.615Z,99.90
2022-09-23T23:31:51.108Z,99.90
2022-09-23T23:34:20.469Z,99.90
2022-09-23T23:36:54.980Z,99.90
2022-09-23T23:39:23.471Z,99.90
2022-09-23T23:41:55.069Z,99.90
2022-09-23T23:44:23.787Z,99.90
2022-09-23T23:46:51.372Z,99.90
2022-09-23T23:49:18.244Z,99.90
2022-09-23T23:51:45.270Z,99.90
2022-09-23T23:54:12.164Z,99.90
2022-09-23T23:56:38.934Z,99.90
2022-09-23T23:59:05.700Z,99.90
